Time;durP1;ratioP1;P1;durP2;ratioP2;P2;SDS_P1;SDS_P2;PMS_P1;PMS_P2;Temp;Humidity;BMP_temperature;BMP_pressure;BME280_temperature;BME280_humidity;BME280_pressure;Samples;Min_cycle;Max_cycle;Signal;HPM_P1;HPM_P2
2022/10/11 00:01:01;;;;;;;;;;;5.90;99.90;;;;;;5041896;28;20015;-66
2022/10/11 00:03:27;;;;;;;;;;;5.90;99.90;;;;;;5025885;28;20017;-66
2022/10/11 00:05:53;;;;;;;;;;;5.80;99.90;;;;;;5018216;28;19926;-66
2022/10/11 00:08:18;;;;;;;;;;;5.80;99.90;;;;;;5023188;28;20302;-66
2022/10/11 00:10:44;;;;;;;;;;;5.80;99.90;;;;;;5036447;28;20338;-66
2022/10/11 00:13:09;;;;;;;;;;;5.80;99.90;;;;;;5036446;28;19987;-66
2022/10/11 00:15:35;;;;;;;;;;;5.70;99.90;;;;;;5036282;28;20020;-66
2022/10/11 00:18:00;;;;;;;;;;;5.70;99.90;;;;;;5039084;28;19921;-66
2022/10/11 00:20:26;;;;;;;;;;;5.70;99.90;;;;;;5044483;28;19920;-66
2022/10/11 00:22:51;;;;;;;;;;;5.70;99.90;;;;;;5037960;28;19920;-66
2022/10/11 00:25:17;;;;;;;;;;;5.60;99.90;;;;;;5034193;28;20343;-66
2022/10/11 00:27:42;;;;;;;;;;;5.60;99.90;;;;;;5042029;28;19933;-66
2022/10/11 00:30:09;;;;;;;;;;;5.60;99.90;;;;;;5047525;28;19924;-66
2022/10/11 00:32:35;;;;;;;;;;;5.60;99.90;;;;;;5030904;28;19928;-66
2022/10/11 00:35:05;;;;;;;;;;;5.60;99.90;;;;;;5031158;28;19921;-67
2022/10/11 00:37:31;;;;;;;;;;;5.60;99.90;;;;;;5031456;28;20012;-66
2022/10/11 00:39:56;;;;;;;;;;;5.60;99.90;;;;;;5020449;28;19927;-66
2022/10/11 00:42:22;;;;;;;;;;;5.60;99.90;;;;;;5037272;28;19925;-66
2022/10/11 00:44:48;;;;;;;;;;;5.50;99.90;;;;;;5047761;28;20401;-66
2022/10/11 00:47:15;;;;;;;;;;;5.60;99.90;;;;;;5034873;28;20309;-66
2022/10/11 00:49:42;;;;;;;;;;;5.50;99.90;;;;;;5045926;28;20002;-67
2022/10/11 00:52:14;;;;;;;;;;;5.50;99.90;;;;;;5042953;28;19925;-66
2022/10/11 00:54:41;;;;;;;;;;;5.50;99.90;;;;;;5037049;28;19932;-66
2022/10/11 00:57:08;;;;;;;;;;;5.50;99.90;;;;;;5037444;28;19925;-66
2022/10/11 00:59:36;;;;;;;;;;;5.40;99.90;;;;;;5045057;28;19927;-66
2022/10/11 01:02:03;;;;;;;;;;;5.40;99.90;;;;;;5030789;28;19929;-66
2022/10/11 01:04:29;;;;;;;;;;;5.40;99.90;;;;;;5037930;28;19925;-66
2022/10/11 01:06:56;;;;;;;;;;;5.30;99.90;;;;;;5033726;28;19931;-67
2022/10/11 01:09:21;;;;;;;;;;;5.30;99.90;;;;;;5033897;28;19967;-67
2022/10/11 01:11:48;;;;;;;;;;;5.30;99.90;;;;;;5034168;28;19921;-66
2022/10/11 01:14:13;;;;;;;;;;;5.30;99.90;;;;;;5034815;28;19922;-66
2022/10/11 01:17:17;;;;;;;;;;;5.30;99.90;;;;;;5029965;28;19920;-66
2022/10/11 01:19:48;;;;;;;;;;;5.20;99.90;;;;;;4967087;28;19929;-66
2022/10/11 01:22:33;;;;;;;;;;;5.20;99.90;;;;;;4961946;28;19925;-67
2022/10/11 01:25:13;;;;;;;;;;;5.20;99.90;;;;;;5003367;28;20015;-66
2022/10/11 01:28:00;;;;;;;;;;;5.20;99.90;;;;;;5032099;28;19932;-66
2022/10/11 01:30:27;;;;;;;;;;;5.20;99.90;;;;;;5043204;28;19927;-66
2022/10/11 01:32:58;;;;;;;;;;;5.10;99.90;;;;;;5033625;28;19964;-66
2022/10/11 01:35:27;;;;;;;;;;;5.10;99.90;;;;;;5038053;28;19932;-66
2022/10/11 01:37:56;;;;;;;;;;;5.10;99.90;;;;;;5041819;28;19928;-66
2022/10/11 01:40:28;;;;;;;;;;;5.10;99.90;;;;;;5048816;28;19956;-66
2022/10/11 01:42:54;;;;;;;;;;;5.10;99.90;;;;;;5045564;28;19921;-66
2022/10/11 01:45:20;;;;;;;;;;;5.10;99.90;;;;;;5037733;28;20285;-66
2022/10/11 01:47:45;;;;;;;;;;;5.10;99.90;;;;;;5044261;28;20445;-66
2022/10/11 01:50:29;;;;;;;;;;;5.10;99.90;;;;;;5052824;28;19928;-66
2022/10/11 01:52:57;;;;;;;;;;;5.10;99.90;;;;;;5042690;28;19921;-66
2022/10/11 01:55:29;;;;;;;;;;;5.10;99.90;;;;;;5035120;28;19927;-66
2022/10/11 01:58:17;;;;;;;;;;;5.10;99.90;;;;;;5035301;28;20365;-66
2022/10/11 02:01:12;;;;;;;;;;;5.10;99.90;;;;;;5022156;28;19953;-66
2022/10/11 02:03:47;;;;;;;;;;;5.10;99.90;;;;;;5015137;28;20340;-66
2022/10/11 02:06:20;;;;;;;;;;;5.10;99.90;;;;;;5019740;28;19921;-67
2022/10/11 02:08:53;;;;;;;;;;;5.10;99.90;;;;;;5028139;28;19929;-66
2022/10/11 02:11:23;;;;;;;;;;;5.10;99.90;;;;;;5036361;28;19982;-66
2022/10/11 02:13:55;;;;;;;;;;;5.00;99.90;;;;;;5027271;28;19948;-66
2022/10/11 02:16:24;;;;;;;;;;;5.00;99.90;;;;;;5036579;28;19927;-66
2022/10/11 02:18:51;;;;;;;;;;;5.00;99.90;;;;;;5042919;28;19928;-66
2022/10/11 02:21:18;;;;;;;;;;;5.00;99.90;;;;;;5049174;28;19928;-66
2022/10/11 02:23:48;;;;;;;;;;;5.00;99.90;;;;;;5042291;28;19960;-66
2022/10/11 02:26:13;;;;;;;;;;;4.90;99.90;;;;;;5037159;28;19955;-67
2022/10/11 02:28:41;;;;;;;;;;;4.90;99.90;;;;;;5045521;28;19956;-66
2022/10/11 02:31:09;;;;;;;;;;;4.90;99.90;;;;;;5040249;28;19939;-67
2022/10/11 02:33:43;;;;;;;;;;;4.90;99.90;;;;;;5041519;28;19921;-66
2022/10/11 02:36:23;;;;;;;;;;;4.90;99.90;;;;;;5032730;28;19956;-66
2022/10/11 02:38:51;;;;;;;;;;;4.90;99.90;;;;;;5040561;28;19929;-66
2022/10/11 02:41:28;;;;;;;;;;;4.80;99.90;;;;;;5036264;28;19976;-66
2022/10/11 02:44:05;;;;;;;;;;;4.80;99.90;;;;;;5025823;28;19922;-67
2022/10/11 02:46:30;;;;;;;;;;;4.80;99.90;;;;;;5035980;28;20707;-66
2022/10/11 02:48:58;;;;;;;;;;;4.80;99.90;;;;;;5033928;28;19925;-66
2022/10/11 02:51:25;;;;;;;;;;;4.70;99.90;;;;;;5035085;28;19921;-66
2022/10/11 02:53:51;;;;;;;;;;;4.80;99.90;;;;;;5038808;28;19956;-67
2022/10/11 02:56:17;;;;;;;;;;;4.70;99.90;;;;;;5036424;28;19963;-67
2022/10/11 02:58:42;;;;;;;;;;;4.70;99.90;;;;;;5034683;28;19975;-67
2022/10/11 03:01:08;;;;;;;;;;;4.70;99.90;;;;;;5036812;28;20015;-67
2022/10/11 03:03:33;;;;;;;;;;;4.60;99.90;;;;;;5045974;28;19921;-66
2022/10/11 03:06:00;;;;;;;;;;;4.60;99.90;;;;;;5038961;28;20004;-67
2022/10/11 03:08:25;;;;;;;;;;;4.60;99.90;;;;;;5038597;28;19975;-67
2022/10/11 03:10:50;;;;;;;;;;;4.60;99.90;;;;;;5033177;28;19921;-66
2022/10/11 03:13:16;;;;;;;;;;;4.60;99.90;;;;;;5044265;28;19968;-67
2022/10/11 03:15:41;;;;;;;;;;;4.60;99.90;;;;;;5029823;28;19921;-67
2022/10/11 03:18:07;;;;;;;;;;;4.60;99.90;;;;;;5034158;28;19928;-67
2022/10/11 03:20:32;;;;;;;;;;;4.60;99.90;;;;;;5026398;28;19966;-67
2022/10/11 03:22:58;;;;;;;;;;;4.60;99.90;;;;;;5039397;28;19971;-66
2022/10/11 03:25:23;;;;;;;;;;;4.60;99.90;;;;;;5037320;28;20035;-66
2022/10/11 03:27:49;;;;;;;;;;;4.50;99.90;;;;;;5046471;28;19968;-67
2022/10/11 03:30:15;;;;;;;;;;;4.50;99.90;;;;;;5042116;28;19922;-67
2022/10/11 03:32:41;;;;;;;;;;;4.50;99.90;;;;;;5034268;28;19925;-67
2022/10/11 03:35:07;;;;;;;;;;;4.50;99.90;;;;;;5044782;28;20275;-67
2022/10/11 03:37:32;;;;;;;;;;;4.50;99.90;;;;;;5050935;28;20019;-66
2022/10/11 03:39:58;;;;;;;;;;;4.50;99.90;;;;;;5033369;28;20012;-66
2022/10/11 03:42:23;;;;;;;;;;;4.50;99.90;;;;;;5043696;28;20266;-67
2022/10/11 03:44:50;;;;;;;;;;;4.50;99.90;;;;;;5040795;28;19929;-67
2022/10/11 03:47:16;;;;;;;;;;;4.50;99.90;;;;;;5035471;28;19929;-67
2022/10/11 03:49:42;;;;;;;;;;;4.50;99.90;;;;;;5038010;28;19963;-66
2022/10/11 03:52:08;;;;;;;;;;;4.50;99.90;;;;;;5034746;28;19956;-67
2022/10/11 03:54:33;;;;;;;;;;;4.50;99.90;;;;;;5034875;28;19928;-66
2022/10/11 03:56:59;;;;;;;;;;;4.50;99.90;;;;;;5037507;28;19960;-66
2022/10/11 03:59:24;;;;;;;;;;;4.50;99.90;;;;;;5038904;28;19921;-67
2022/10/11 04:01:49;;;;;;;;;;;4.50;99.90;;;;;;5041552;28;20279;-67
2022/10/11 04:04:15;;;;;;;;;;;4.50;99.90;;;;;;5041910;28;19943;-67
2022/10/11 04:06:40;;;;;;;;;;;4.50;99.90;;;;;;5028318;28;19978;-67
2022/10/11 04:09:06;;;;;;;;;;;4.50;99.90;;;;;;5035988;28;20656;-67
2022/10/11 04:11:31;;;;;;;;;;;4.40;99.90;;;;;;5035002;28;19921;-67
2022/10/11 04:13:57;;;;;;;;;;;4.50;99.90;;;;;;5036247;28;20321;-66
2022/10/11 04:16:23;;;;;;;;;;;4.40;99.90;;;;;;5041923;28;19927;-67
2022/10/11 04:18:48;;;;;;;;;;;4.40;99.90;;;;;;5034048;28;20294;-67
2022/10/11 04:21:13;;;;;;;;;;;4.50;99.90;;;;;;5028785;28;19921;-67
2022/10/11 04:23:39;;;;;;;;;;;4.50;99.90;;;;;;5032996;28;19925;-67
2022/10/11 04:26:05;;;;;;;;;;;4.50;99.90;;;;;;5031160;28;19921;-67
2022/10/11 04:28:32;;;;;;;;;;;4.50;99.90;;;;;;5040954;28;19998;-67
2022/10/11 04:30:57;;;;;;;;;;;4.50;99.90;;;;;;5037404;28;20397;-67
2022/10/11 04:33:22;;;;;;;;;;;4.60;99.90;;;;;;5042613;28;19924;-67
2022/10/11 04:35:51;;;;;;;;;;;4.60;99.90;;;;;;5018073;28;19925;-67
2022/10/11 04:38:17;;;;;;;;;;;4.70;99.90;;;;;;5036553;28;20317;-67
2022/10/11 04:40:42;;;;;;;;;;;4.80;99.90;;;;;;5031321;28;19965;-66
2022/10/11 04:43:08;;;;;;;;;;;4.90;99.90;;;;;;5033852;28;19975;-66
2022/10/11 04:45:34;;;;;;;;;;;4.90;99.90;;;;;;5035817;28;19928;-66
2022/10/11 04:47:59;;;;;;;;;;;4.90;99.90;;;;;;5035506;28;19943;-67
2022/10/11 04:50:24;;;;;;;;;;;4.90;99.90;;;;;;5032458;28;20422;-67
2022/10/11 04:52:50;;;;;;;;;;;4.90;99.90;;;;;;5033485;28;19921;-67
2022/10/11 04:55:15;;;;;;;;;;;4.90;99.90;;;;;;5028748;28;20378;-67
2022/10/11 04:57:41;;;;;;;;;;;4.90;99.90;;;;;;5031702;28;19925;-67
2022/10/11 05:00:07;;;;;;;;;;;4.90;99.90;;;;;;5028454;28;20299;-67
2022/10/11 05:02:32;;;;;;;;;;;4.90;99.90;;;;;;5032603;28;19932;-67
2022/10/11 05:04:58;;;;;;;;;;;4.90;99.90;;;;;;5017759;28;20536;-67
2022/10/11 05:07:23;;;;;;;;;;;5.00;99.90;;;;;;5038380;28;19926;-67
2022/10/11 05:09:49;;;;;;;;;;;5.00;99.90;;;;;;5030945;28;19921;-67
2022/10/11 05:12:14;;;;;;;;;;;5.00;99.90;;;;;;5033224;28;20037;-67
2022/10/11 05:14:40;;;;;;;;;;;5.00;99.90;;;;;;5044680;28;19929;-67
2022/10/11 05:17:05;;;;;;;;;;;5.00;99.90;;;;;;5037406;28;19921;-67
2022/10/11 05:19:31;;;;;;;;;;;5.00;99.90;;;;;;5035773;28;20004;-67
2022/10/11 05:21:56;;;;;;;;;;;5.00;99.90;;;;;;5040449;28;19960;-67
2022/10/11 05:24:22;;;;;;;;;;;5.00;99.90;;;;;;5035287;28;19925;-67
2022/10/11 05:26:47;;;;;;;;;;;4.90;99.90;;;;;;5015521;28;20252;-67
2022/10/11 05:29:13;;;;;;;;;;;4.90;99.90;;;;;;5037443;28;20244;-67
2022/10/11 05:31:38;;;;;;;;;;;4.90;99.90;;;;;;5037507;28;20612;-66
2022/10/11 05:34:04;;;;;;;;;;;4.90;99.90;;;;;;5036483;28;20011;-67
2022/10/11 05:36:29;;;;;;;;;;;4.90;99.90;;;;;;5033953;28;19928;-67
2022/10/11 05:38:54;;;;;;;;;;;4.80;99.90;;;;;;5038968;28;20340;-66
2022/10/11 05:41:20;;;;;;;;;;;4.80;99.90;;;;;;5040417;28;20002;-66
2022/10/11 05:43:45;;;;;;;;;;;4.80;99.90;;;;;;5017356;28;20342;-67
2022/10/11 05:46:11;;;;;;;;;;;4.80;99.90;;;;;;5037161;28;19971;-66
2022/10/11 05:48:37;;;;;;;;;;;4.80;99.90;;;;;;5043936;28;19925;-67
2022/10/11 05:51:04;;;;;;;;;;;4.80;99.90;;;;;;5037891;28;19999;-67
2022/10/11 05:53:30;;;;;;;;;;;4.90;99.90;;;;;;5033812;28;19929;-66
2022/10/11 05:55:56;;;;;;;;;;;4.90;99.90;;;;;;5042155;28;19931;-67
2022/10/11 05:58:21;;;;;;;;;;;4.90;99.90;;;;;;5039265;28;19921;-67
2022/10/11 06:00:47;;;;;;;;;;;5.00;99.90;;;;;;5030590;28;20462;-67
2022/10/11 06:03:13;;;;;;;;;;;5.00;99.90;;;;;;5043831;28;19931;-67
2022/10/11 06:05:39;;;;;;;;;;;5.00;99.90;;;;;;5036231;28;19921;-67
2022/10/11 06:08:05;;;;;;;;;;;5.00;99.90;;;;;;5045425;28;20348;-67
2022/10/11 06:10:31;;;;;;;;;;;5.10;99.90;;;;;;5067665;22;19968;-67
2022/10/11 06:12:57;;;;;;;;;;;5.10;99.90;;;;;;5033988;28;19963;-67
2022/10/11 06:15:22;;;;;;;;;;;5.10;99.90;;;;;;5037071;28;20350;-68
2022/10/11 06:17:48;;;;;;;;;;;5.10;99.90;;;;;;5031846;28;19928;-68
2022/10/11 06:20:13;;;;;;;;;;;5.20;99.90;;;;;;5029934;28;19932;-67
2022/10/11 06:22:39;;;;;;;;;;;5.30;99.90;;;;;;5028450;28;19921;-67
2022/10/11 06:25:05;;;;;;;;;;;5.30;99.90;;;;;;5029708;28;20072;-67
2022/10/11 06:27:31;;;;;;;;;;;5.40;99.90;;;;;;5045021;28;19932;-67
2022/10/11 06:29:56;;;;;;;;;;;5.40;99.90;;;;;;5030626;28;20606;-68
2022/10/11 06:32:22;;;;;;;;;;;5.40;99.90;;;;;;5031056;28;19921;-68
2022/10/11 06:34:47;;;;;;;;;;;5.50;99.90;;;;;;5014959;28;20016;-68
2022/10/11 06:37:13;;;;;;;;;;;5.60;99.90;;;;;;5031946;28;19921;-68
2022/10/11 06:39:38;;;;;;;;;;;5.70;99.90;;;;;;5028463;28;19936;-68
2022/10/11 06:42:03;;;;;;;;;;;5.70;99.90;;;;;;5028529;28;19921;-68
2022/10/11 06:44:29;;;;;;;;;;;5.80;99.90;;;;;;5028480;28;19921;-68
2022/10/11 06:46:54;;;;;;;;;;;5.90;99.90;;;;;;5024757;28;19983;-68
2022/10/11 06:49:20;;;;;;;;;;;6.10;99.90;;;;;;5040797;28;19947;-68
2022/10/11 06:51:45;;;;;;;;;;;6.30;99.90;;;;;;5032387;28;20002;-68
2022/10/11 06:54:11;;;;;;;;;;;6.60;99.90;;;;;;5031622;28;20063;-68
2022/10/11 06:56:36;;;;;;;;;;;7.00;99.90;;;;;;5030065;28;20366;-68
2022/10/11 06:59:02;;;;;;;;;;;7.40;99.90;;;;;;5015585;28;19921;-68
2022/10/11 07:01:28;;;;;;;;;;;7.80;99.90;;;;;;5030885;28;19928;-68
2022/10/11 07:03:54;;;;;;;;;;;8.20;99.90;;;;;;5023322;28;19999;-68
2022/10/11 07:06:21;;;;;;;;;;;8.40;99.90;;;;;;5027574;28;19929;-68
2022/10/11 07:08:47;;;;;;;;;;;8.60;99.90;;;;;;5013620;28;19964;-68
2022/10/11 07:11:13;;;;;;;;;;;8.70;99.90;;;;;;5024154;28;20022;-68
2022/10/11 07:13:39;;;;;;;;;;;8.50;99.90;;;;;;5028934;28;19929;-68
2022/10/11 07:16:06;;;;;;;;;;;8.40;99.90;;;;;;5029913;28;20252;-69
2022/10/11 07:18:32;;;;;;;;;;;8.30;99.90;;;;;;5030406;28;19928;-69
2022/10/11 07:20:58;;;;;;;;;;;8.20;99.90;;;;;;5029933;28;19925;-69
2022/10/11 07:23:23;;;;;;;;;;;8.20;99.90;;;;;;5024001;28;19921;-69
2022/10/11 07:25:53;;;;;;;;;;;8.10;99.90;;;;;;5012198;28;19953;-69
2022/10/11 07:28:18;;;;;;;;;;;8.10;99.90;;;;;;5024824;28;20023;-69
2022/10/11 07:30:44;;;;;;;;;;;8.10;99.90;;;;;;5039549;28;20007;-69
2022/10/11 07:33:09;;;;;;;;;;;8.10;99.90;;;;;;5028572;28;20002;-69
2022/10/11 07:35:35;;;;;;;;;;;8.20;99.90;;;;;;5227304;23;19933;-69
2022/10/11 07:38:01;;;;;;;;;;;8.20;99.90;;;;;;5070304;28;19985;-69
2022/10/11 07:40:27;;;;;;;;;;;8.30;99.90;;;;;;5067973;28;19931;-69
2022/10/11 07:42:52;;;;;;;;;;;8.30;99.90;;;;;;5058232;28;19924;-69
2022/10/11 07:45:18;;;;;;;;;;;8.40;99.90;;;;;;5070101;28;19924;-69
2022/10/11 07:47:45;;;;;;;;;;;8.50;99.90;;;;;;5070750;28;19930;-69
2022/10/11 07:50:13;;;;;;;;;;;8.60;99.90;;;;;;5071199;28;19924;-69
2022/10/11 07:52:39;;;;;;;;;;;8.70;99.90;;;;;;5062796;28;19925;-69
2022/10/11 07:55:05;;;;;;;;;;;8.70;99.90;;;;;;5071158;28;19927;-69
2022/10/11 07:57:30;;;;;;;;;;;8.80;99.90;;;;;;5064061;28;20367;-69
2022/10/11 07:59:56;;;;;;;;;;;8.90;99.90;;;;;;5060146;28;19921;-69
2022/10/11 08:02:21;;;;;;;;;;;9.00;99.90;;;;;;5067427;28;19927;-69
2022/10/11 08:04:47;;;;;;;;;;;9.10;99.90;;;;;;5067967;28;19932;-69
2022/10/11 08:07:12;;;;;;;;;;;9.20;99.90;;;;;;5070312;28;19932;-69
2022/10/11 08:09:38;;;;;;;;;;;9.30;99.90;;;;;;5070562;28;19928;-69
2022/10/11 08:12:03;;;;;;;;;;;9.40;99.90;;;;;;5051783;28;19947;-68
2022/10/11 08:14:29;;;;;;;;;;;9.60;99.90;;;;;;5070508;28;19929;-69
2022/10/11 08:16:54;;;;;;;;;;;9.70;99.90;;;;;;5051546;28;19932;-68
2022/10/11 08:19:20;;;;;;;;;;;9.80;99.90;;;;;;5053463;28;19967;-69
2022/10/11 08:21:45;;;;;;;;;;;9.90;99.90;;;;;;5070389;28;20317;-69
2022/10/11 08:24:14;;;;;;;;;;;10.00;99.90;;;;;;5069530;28;20011;-69
2022/10/11 08:26:39;;;;;;;;;;;10.10;99.90;;;;;;5070390;28;19929;-69
2022/10/11 08:29:05;;;;;;;;;;;10.20;99.90;;;;;;5069672;28;19979;-69
2022/10/11 08:31:30;;;;;;;;;;;10.40;99.90;;;;;;5068666;28;20419;-69
2022/10/11 08:33:56;;;;;;;;;;;10.40;99.90;;;;;;5071877;28;19962;-69
2022/10/11 08:36:21;;;;;;;;;;;10.60;99.90;;;;;;5067388;28;19928;-69
2022/10/11 08:38:47;;;;;;;;;;;10.70;99.90;;;;;;5071549;28;20011;-69
2022/10/11 08:41:21;;;;;;;;;;;10.70;99.90;;;;;;5068247;28;19929;-69
2022/10/11 08:43:53;;;;;;;;;;;10.70;99.90;;;;;;5066405;28;20031;-69
2022/10/11 08:46:24;;;;;;;;;;;10.70;99.90;;;;;;5068713;28;20011;-70
2022/10/11 08:48:50;;;;;;;;;;;10.70;99.90;;;;;;5053474;28;19930;-70
2022/10/11 08:51:34;;;;;;;;;;;10.80;99.90;;;;;;5070284;28;19924;-70
2022/10/11 08:54:05;;;;;;;;;;;11.00;99.90;;;;;;5050054;28;19964;-70
2022/10/11 08:56:33;;;;;;;;;;;11.00;99.90;;;;;;5069999;28;19927;-70
2022/10/11 08:59:11;;;;;;;;;;;11.00;99.90;;;;;;5068947;28;19978;-69
2022/10/11 09:01:48;;;;;;;;;;;11.00;99.90;;;;;;5065905;28;19927;-69
2022/10/11 09:04:14;;;;;;;;;;;11.10;99.90;;;;;;5065171;28;20289;-69
2022/10/11 09:06:44;;;;;;;;;;;11.10;99.90;;;;;;5052228;28;19995;-70
2022/10/11 09:09:17;;;;;;;;;;;11.20;99.90;;;;;;5052239;28;19928;-69
2022/10/11 09:12:09;;;;;;;;;;;11.30;99.90;;;;;;5069541;28;19924;-69
2022/10/11 09:14:41;;;;;;;;;;;11.40;99.90;;;;;;5021748;28;19927;-69
2022/10/11 09:17:12;;;;;;;;;;;11.50;99.90;;;;;;5069935;28;19978;-69
2022/10/11 09:19:38;;;;;;;;;;;11.60;99.90;;;;;;5050215;28;19920;-69
2022/10/11 09:22:03;;;;;;;;;;;11.60;99.90;;;;;;5064934;28;19947;-69
2022/10/11 09:24:35;;;;;;;;;;;11.70;99.90;;;;;;5063315;28;19947;-69
2022/10/11 09:27:08;;;;;;;;;;;11.70;99.90;;;;;;5066916;28;19932;-69
2022/10/11 09:29:44;;;;;;;;;;;11.80;99.90;;;;;;5045978;28;19925;-69
2022/10/11 09:32:14;;;;;;;;;;;11.90;99.90;;;;;;5058989;28;19920;-69
2022/10/11 09:34:40;;;;;;;;;;;11.90;99.90;;;;;;5060618;28;19924;-69
2022/10/11 09:37:16;;;;;;;;;;;11.90;99.90;;;;;;5060969;28;20019;-69
2022/10/11 09:39:49;;;;;;;;;;;12.00;99.90;;;;;;5064369;28;19932;-69
2022/10/11 09:42:14;;;;;;;;;;;12.00;99.90;;;;;;5069427;28;20381;-69
2022/10/11 09:44:45;;;;;;;;;;;12.20;99.90;;;;;;5064850;28;19960;-69
2022/10/11 09:47:11;;;;;;;;;;;;;;;;;;5067270;28;20277;-69
2022/10/11 09:49:39;;;;;;;;;;;12.30;99.90;;;;;;5064794;28;19920;-69
2022/10/11 09:52:05;;;;;;;;;;;12.50;99.90;;;;;;5064774;28;19920;-69
2022/10/11 09:54:38;;;;;;;;;;;12.60;99.90;;;;;;5068753;28;19974;-69
2022/10/11 09:57:04;;;;;;;;;;;12.70;99.90;;;;;;5070420;28;19950;-69
2022/10/11 09:59:30;;;;;;;;;;;;;;;;;;5072309;28;20274;-70
2022/10/11 10:02:15;;;;;;;;;;;12.90;99.90;;;;;;5070673;28;19924;-70
2022/10/11 10:04:59;;;;;;;;;;;13.00;99.90;;;;;;5052272;28;19971;-70
2022/10/11 10:07:26;;;;;;;;;;;13.10;99.90;;;;;;5068222;28;19935;-70
2022/10/11 10:09:52;;;;;;;;;;;13.20;99.90;;;;;;5071812;28;21506;-69
2022/10/11 10:12:20;;;;;;;;;;;13.20;99.90;;;;;;5067250;28;19920;-69
2022/10/11 10:15:00;;;;;;;;;;;13.30;99.90;;;;;;5071274;28;19928;-69
2022/10/11 10:17:25;;;;;;;;;;;13.40;99.90;;;;;;5066483;28;19921;-69
2022/10/11 10:19:52;;;;;;;;;;;13.40;99.90;;;;;;5069287;28;19939;-69
2022/10/11 10:22:20;;;;;;;;;;;13.30;99.90;;;;;;5067722;28;20364;-69
2022/10/11 10:24:46;;;;;;;;;;;13.30;99.90;;;;;;5061933;28;19978;-69
2022/10/11 10:27:28;;;;;;;;;;;13.30;99.90;;;;;;5070635;28;20065;-69
2022/10/11 10:30:12;;;;;;;;;;;13.50;99.90;;;;;;5070820;28;19928;-69
2022/10/11 10:32:59;;;;;;;;;;;13.50;99.90;;;;;;5062197;28;19932;-69
2022/10/11 10:35:37;;;;;;;;;;;13.60;99.90;;;;;;5065771;28;20280;-69
2022/10/11 10:38:21;;;;;;;;;;;13.60;99.90;;;;;;5066676;28;20573;-68
2022/10/11 10:40:49;;;;;;;;;;;13.70;99.90;;;;;;5062864;28;19924;-69
2022/10/11 10:43:16;;;;;;;;;;;13.80;99.90;;;;;;5072040;28;20285;-69
2022/10/11 10:46:00;;;;;;;;;;;13.90;99.90;;;;;;5070556;28;19974;-69
2022/10/11 10:48:33;;;;;;;;;;;13.90;99.90;;;;;;5071592;28;19978;-69
2022/10/11 10:51:03;;;;;;;;;;;13.90;99.90;;;;;;5070106;28;19924;-69
2022/10/11 10:53:40;;;;;;;;;;;14.00;99.90;;;;;;5071202;28;20010;-68
2022/10/11 10:56:15;;;;;;;;;;;14.20;99.90;;;;;;5071056;28;19935;-69
2022/10/11 10:58:48;;;;;;;;;;;14.40;99.90;;;;;;5068193;28;19932;-69
2022/10/11 11:01:16;;;;;;;;;;;14.50;99.90;;;;;;5051445;28;19921;-69
2022/10/11 11:04:04;;;;;;;;;;;14.70;99.90;;;;;;5067655;28;19931;-69
2022/10/11 11:06:40;;;;;;;;;;;15.00;99.90;;;;;;5069144;28;19924;-69
2022/10/11 11:09:14;;;;;;;;;;;15.00;99.90;;;;;;5065661;28;20297;-69
2022/10/11 11:11:39;;;;;;;;;;;15.00;99.90;;;;;;5070989;28;19921;-69
2022/10/11 11:14:14;;;;;;;;;;;14.80;99.90;;;;;;5067278;28;19947;-69
2022/10/11 11:16:43;;;;;;;;;;;14.80;99.90;;;;;;5071058;28;19920;-69
2022/10/11 11:19:22;;;;;;;;;;;14.70;99.90;;;;;;5071425;28;20054;-69
2022/10/11 11:21:50;;;;;;;;;;;14.60;99.90;;;;;;5071450;28;19920;-69
2022/10/11 11:24:16;;;;;;;;;;;14.70;99.90;;;;;;5071320;28;19920;-69
2022/10/11 11:26:49;;;;;;;;;;;14.60;99.90;;;;;;5068422;28;19935;-69
2022/10/11 11:29:24;;;;;;;;;;;14.50;99.90;;;;;;5068375;28;19925;-69
2022/10/11 11:31:49;;;;;;;;;;;14.50;99.90;;;;;;5063299;28;19967;-69
2022/10/11 11:34:18;;;;;;;;;;;14.40;99.90;;;;;;5068897;28;19960;-69
2022/10/11 11:36:46;;;;;;;;;;;14.30;99.90;;;;;;5069383;28;19932;-68
2022/10/11 11:39:15;;;;;;;;;;;14.10;99.90;;;;;;5068105;28;19929;-68
2022/10/11 11:41:49;;;;;;;;;;;14.10;99.90;;;;;;5068512;28;19967;-69
2022/10/11 11:44:16;;;;;;;;;;;14.20;99.90;;;;;;5067809;28;20389;-70
2022/10/11 11:46:58;;;;;;;;;;;14.30;99.90;;;;;;5064151;28;19925;-68
2022/10/11 11:49:32;;;;;;;;;;;14.30;99.90;;;;;;5068909;28;19924;-68
2022/10/11 11:51:58;;;;;;;;;;;14.50;99.90;;;;;;5070738;28;19966;-68
2022/10/11 11:54:33;;;;;;;;;;;14.70;99.90;;;;;;5069751;28;19924;-68
2022/10/11 11:57:10;;;;;;;;;;;14.80;99.90;;;;;;5066463;28;19924;-68
2022/10/11 11:59:44;;;;;;;;;;;14.90;99.90;;;;;;5068240;28;19930;-68
2022/10/11 12:02:28;;;;;;;;;;;15.00;99.90;;;;;;5061279;28;20014;-68
2022/10/11 12:04:54;;;;;;;;;;;15.00;99.90;;;;;;5063061;28;19920;-66
2022/10/11 12:07:21;;;;;;;;;;;15.00;99.90;;;;;;5066371;28;20399;-68
2022/10/11 12:09:49;;;;;;;;;;;15.00;99.90;;;;;;5065863;28;20011;-69
2022/10/11 12:12:35;;;;;;;;;;;14.90;99.90;;;;;;5052156;28;19925;-69
2022/10/11 12:15:14;;;;;;;;;;;14.90;99.90;;;;;;5068112;28;19973;-69
2022/10/11 12:17:52;;;;;;;;;;;15.00;99.90;;;;;;5068649;28;20584;-68
2022/10/11 12:20:25;;;;;;;;;;;15.10;99.90;;;;;;5065652;28;19927;-66
2022/10/11 12:22:52;;;;;;;;;;;15.30;99.90;;;;;;5063374;28;19956;-66
2022/10/11 12:25:20;;;;;;;;;;;15.30;99.90;;;;;;5049393;28;19920;-67
2022/10/11 12:27:47;;;;;;;;;;;15.40;99.90;;;;;;5066075;28;19936;-67
2022/10/11 12:30:31;;;;;;;;;;;15.40;99.90;;;;;;5068246;28;20603;-67
2022/10/11 12:33:16;;;;;;;;;;;15.40;99.90;;;;;;5036541;28;19921;-66
2022/10/11 12:35:53;;;;;;;;;;;15.50;99.90;;;;;;5066058;28;19925;-69
2022/10/11 12:38:28;;;;;;;;;;;15.40;99.90;;;;;;5066631;28;19935;-67
2022/10/11 12:41:01;;;;;;;;;;;15.30;99.90;;;;;;5059930;28;20456;-66
2022/10/11 12:43:35;;;;;;;;;;;15.40;99.90;;;;;;5049935;28;19950;-67
2022/10/11 12:46:19;;;;;;;;;;;15.40;99.90;;;;;;5068616;28;20012;-66
2022/10/11 12:48:53;;;;;;;;;;;15.50;99.90;;;;;;5069889;28;19931;-69
2022/10/11 12:51:24;;;;;;;;;;;15.50;99.90;;;;;;5070075;28;19929;-68
2022/10/11 12:53:52;;;;;;;;;;;15.60;99.90;;;;;;5052434;28;19970;-68
2022/10/11 12:56:25;;;;;;;;;;;15.60;99.90;;;;;;5058216;28;19963;-69
2022/10/11 12:58:51;;;;;;;;;;;;;;;;;;5067778;28;19927;-66
2022/10/11 13:01:18;;;;;;;;;;;15.70;99.90;;;;;;5065650;28;20406;-68
2022/10/11 13:03:49;;;;;;;;;;;15.80;99.90;;;;;;5067226;28;20320;-67
2022/10/11 13:06:15;;;;;;;;;;;15.80;99.90;;;;;;5063201;28;20007;-68
2022/10/11 13:08:42;;;;;;;;;;;15.90;99.90;;;;;;5063376;28;20208;-68
2022/10/11 13:11:08;;;;;;;;;;;15.90;99.90;;;;;;5067186;28;20590;-68
2022/10/11 13:13:39;;;;;;;;;;;15.80;99.90;;;;;;5062293;28;19921;-67
2022/10/11 13:16:12;;;;;;;;;;;15.90;99.90;;;;;;5068734;28;19921;-67
2022/10/11 13:18:40;;;;;;;;;;;16.00;99.90;;;;;;5066605;28;20385;-68
2022/10/11 13:21:14;;;;;;;;;;;16.00;99.90;;;;;;5067058;28;19920;-67
2022/10/11 13:23:39;;;;;;;;;;;16.00;99.90;;;;;;5065230;28;20015;-67
2022/10/11 13:26:05;;;;;;;;;;;16.10;99.90;;;;;;5066677;28;20349;-67
2022/10/11 13:28:30;;;;;;;;;;;16.10;99.90;;;;;;5068052;28;19932;-68
2022/10/11 13:30:57;;;;;;;;;;;16.10;99.90;;;;;;5066598;28;20274;-67
2022/10/11 13:33:25;;;;;;;;;;;16.20;99.90;;;;;;5052642;28;19920;-67
2022/10/11 13:35:51;;;;;;;;;;;16.20;99.90;;;;;;5072550;28;19920;-67
2022/10/11 13:38:19;;;;;;;;;;;16.10;99.90;;;;;;5072218;28;19925;-67
2022/10/11 13:40:45;;;;;;;;;;;16.20;99.90;;;;;;5070995;28;19921;-67
2022/10/11 13:43:11;;;;;;;;;;;16.20;99.90;;;;;;5060600;28;19920;-67
2022/10/11 13:45:38;;;;;;;;;;;16.20;99.80;;;;;;5067830;28;19920;-67
2022/10/11 13:48:11;;;;;;;;;;;16.20;99.00;;;;;;5066941;28;19924;-67
2022/10/11 13:50:38;;;;;;;;;;;16.30;99.40;;;;;;5072572;28;19920;-67
2022/10/11 13:53:09;;;;;;;;;;;16.40;99.90;;;;;;5064049;28;19963;-68
2022/10/11 13:55:46;;;;;;;;;;;16.60;99.90;;;;;;5067301;28;19935;-67
2022/10/11 13:58:35;;;;;;;;;;;16.70;99.90;;;;;;5067174;28;19924;-67
2022/10/11 14:01:05;;;;;;;;;;;16.70;99.00;;;;;;5053617;28;20532;-67
2022/10/11 14:03:33;;;;;;;;;;;16.80;98.70;;;;;;5061395;28;20322;-65
2022/10/11 14:05:59;;;;;;;;;;;16.90;99.80;;;;;;5069413;28;19999;-65
2022/10/11 14:08:24;;;;;;;;;;;17.00;98.40;;;;;;5066990;28;20015;-65
2022/10/11 14:10:50;;;;;;;;;;;16.90;97.10;;;;;;5073086;28;19964;-65
2022/10/11 14:13:23;;;;;;;;;;;16.90;96.70;;;;;;5069845;28;20034;-65
2022/10/11 14:16:08;;;;;;;;;;;16.70;98.90;;;;;;5072569;28;19926;-65
2022/10/11 14:18:41;;;;;;;;;;;16.80;99.90;;;;;;5068201;28;20277;-65
2022/10/11 14:21:22;;;;;;;;;;;16.80;99.90;;;;;;5065091;28;19928;-65
2022/10/11 14:23:50;;;;;;;;;;;16.90;99.90;;;;;;5071620;28;19920;-65
2022/10/11 14:26:16;;;;;;;;;;;16.90;99.90;;;;;;5071884;28;19920;-65
2022/10/11 14:28:42;;;;;;;;;;;16.80;99.90;;;;;;5072813;28;19985;-65
2022/10/11 14:31:08;;;;;;;;;;;16.40;99.90;;;;;;5067368;28;19935;-66
2022/10/11 14:33:34;;;;;;;;;;;16.40;99.90;;;;;;5071775;28;19921;-65
2022/10/11 14:35:59;;;;;;;;;;;16.30;99.90;;;;;;5070656;28;19955;-66